Portland, Oregon
Traffic Map
Current Weather Conditions
Portland, Oregon
Scattered Clouds
Scattered Clouds
32°
Feels Like: 32°
Wind Chill: 32° Ceiling: Unl
Heat Index: 32° Visibility: 10mi
Dew Point: 25° Wind: 0mph
Humidity: 75% Direction: ° ()
Pressure: 30.23in Gusts: 0mph
Raw Report DataKPDX 200353Z 00000KT 10SM SCT250 00/M04 A3023 RMK AO2 SLP236 T00001039
Traffic Incident Summary
Active as of:
Severity:
Category:
InformationThere was an issue retrieving the traffic information for this location. Please try a different location or try again shortly.
Advertisements